EKCH/CPH METAR and TAF weather

Enter ICAO airport designator
Station Type Date Time Source
EKCH METAR 2018/12/13 19:50 UTC NOAA

EKCH 131950Z 05012KT 9999 FEW012 BKN070 01/M01 Q1028 NOSIG


Station Type Date Time Source
EKCH Decoded METAR 2018/12/13 19:50 UTC NOAA

Koebenhavn / Kastrup, Denmark (EKCH) 55-37N 012-39E 5M
Dec 13, 2018 - 02:50 PM EST / 2018.12.13 1950 UTC
Wind: from the NE (050 degrees) at 14 MPH (12 KT):0
Visibility: greater than 7 mile(s):0
Sky conditions: mostly cloudy
Temperature: 33 F (1 C)
Windchill: 23 F (-5 C):1
Dew Point: 30 F (-1 C)
Relative Humidity: 86%
Pressure (altimeter): 30.36 in. Hg (1028 hPa)
ob: EKCH 131950Z 05012KT 9999 FEW012 BKN070 01/M01 Q1028 NOSIG
cycle: 20

Station Type Date Time Source
EKCH TAF 2018/12/13 18:18 UTC NOAA

TAF EKCH 131710Z 1318/1418 06015KT 9999 SCT015 BKN035
TEMPO 1400/1418 -SHRASN


Example: see airport list